sensor_id;sensor_type;location;lat;lon;timestamp;P1;durP1;ratioP1;P2;durP2;ratioP2
25615;SDS011;13482;48.234;13.006;2023-04-21T00:01:05;9.40;;;7.93;;
25615;SDS011;13482;48.234;13.006;2023-04-21T00:03:35;9.80;;;7.55;;
25615;SDS011;13482;48.234;13.006;2023-04-21T00:06:04;8.90;;;7.03;;
25615;SDS011;13482;48.234;13.006;2023-04-21T00:08:31;10.00;;;7.82;;
25615;SDS011;13482;48.234;13.006;2023-04-21T00:10:59;10.00;;;7.88;;
25615;SDS011;13482;48.234;13.006;2023-04-21T00:13:26;9.02;;;7.25;;
25615;SDS011;13482;48.234;13.006;2023-04-21T00:15:53;9.43;;;7.72;;
25615;SDS011;13482;48.234;13.006;2023-04-21T00:18:20;8.65;;;6.68;;
25615;SDS011;13482;48.234;13.006;2023-04-21T00:20:47;9.90;;;7.90;;
25615;SDS011;13482;48.234;13.006;2023-04-21T00:23:15;9.60;;;7.60;;
25615;SDS011;13482;48.234;13.006;2023-04-21T00:25:42;9.68;;;7.53;;
25615;SDS011;13482;48.234;13.006;2023-04-21T00:28:09;9.40;;;7.30;;
25615;SDS011;13482;48.234;13.006;2023-04-21T00:30:37;8.95;;;7.30;;
25615;SDS011;13482;48.234;13.006;2023-04-21T00:33:05;9.30;;;7.25;;
25615;SDS011;13482;48.234;13.006;2023-04-21T00:35:33;10.07;;;7.72;;
25615;SDS011;13482;48.234;13.006;2023-04-21T00:38:00;8.73;;;6.68;;
25615;SDS011;13482;48.234;13.006;2023-04-21T00:40:27;10.07;;;7.70;;
25615;SDS011;13482;48.234;13.006;2023-04-21T00:42:54;9.45;;;7.05;;
25615;SDS011;13482;48.234;13.006;2023-04-21T00:45:21;8.20;;;6.63;;
25615;SDS011;13482;48.234;13.006;2023-04-21T00:47:48;8.45;;;6.80;;
25615;SDS011;13482;48.234;13.006;2023-04-21T00:50:15;7.70;;;6.30;;
25615;SDS011;13482;48.234;13.006;2023-04-21T00:52:42;7.30;;;6.03;;
25615;SDS011;13482;48.234;13.006;2023-04-21T00:55:12;7.20;;;5.78;;
25615;SDS011;13482;48.234;13.006;2023-04-21T00:57:40;8.60;;;6.05;;
25615;SDS011;13482;48.234;13.006;2023-04-21T01:00:07;8.05;;;5.93;;
25615;SDS011;13482;48.234;13.006;2023-04-21T01:02:36;7.07;;;5.70;;
25615;SDS011;13482;48.234;13.006;2023-04-21T01:05:05;7.95;;;6.00;;
25615;SDS011;13482;48.234;13.006;2023-04-21T01:07:34;8.02;;;6.07;;
25615;SDS011;13482;48.234;13.006;2023-04-21T01:10:02;7.65;;;6.00;;
25615;SDS011;13482;48.234;13.006;2023-04-21T01:12:30;7.93;;;6.07;;
25615;SDS011;13482;48.234;13.006;2023-04-21T01:14:57;9.70;;;6.78;;
25615;SDS011;13482;48.234;13.006;2023-04-21T01:17:24;8.65;;;6.82;;
25615;SDS011;13482;48.234;13.006;2023-04-21T01:19:52;7.45;;;6.13;;
25615;SDS011;13482;48.234;13.006;2023-04-21T01:22:21;8.73;;;6.60;;
25615;SDS011;13482;48.234;13.006;2023-04-21T01:24:48;9.65;;;6.97;;
25615;SDS011;13482;48.234;13.006;2023-04-21T01:27:17;7.78;;;6.20;;
25615;SDS011;13482;48.234;13.006;2023-04-21T01:29:47;8.88;;;6.32;;
25615;SDS011;13482;48.234;13.006;2023-04-21T01:32:19;8.38;;;6.38;;
25615;SDS011;13482;48.234;13.006;2023-04-21T01:34:51;7.20;;;5.40;;
25615;SDS011;13482;48.234;13.006;2023-04-21T01:37:21;7.40;;;5.63;;
25615;SDS011;13482;48.234;13.006;2023-04-21T01:39:53;8.65;;;6.07;;
25615;SDS011;13482;48.234;13.006;2023-04-21T01:42:23;7.20;;;5.55;;
25615;SDS011;13482;48.234;13.006;2023-04-21T01:44:53;8.57;;;5.93;;
25615;SDS011;13482;48.234;13.006;2023-04-21T01:47:21;8.27;;;5.95;;
25615;SDS011;13482;48.234;13.006;2023-04-21T01:49:49;8.50;;;6.13;;
25615;SDS011;13482;48.234;13.006;2023-04-21T01:52:17;8.25;;;6.40;;
25615;SDS011;13482;48.234;13.006;2023-04-21T01:54:44;8.68;;;6.60;;
25615;SDS011;13482;48.234;13.006;2023-04-21T01:57:11;8.50;;;6.38;;
25615;SDS011;13482;48.234;13.006;2023-04-21T01:59:39;8.27;;;6.47;;
25615;SDS011;13482;48.234;13.006;2023-04-21T02:02:06;8.27;;;6.20;;
25615;SDS011;13482;48.234;13.006;2023-04-21T02:04:33;8.98;;;6.57;;
25615;SDS011;13482;48.234;13.006;2023-04-21T02:07:01;9.05;;;6.90;;
25615;SDS011;13482;48.234;13.006;2023-04-21T02:09:28;9.38;;;7.20;;
25615;SDS011;13482;48.234;13.006;2023-04-21T02:11:56;9.35;;;6.72;;
25615;SDS011;13482;48.234;13.006;2023-04-21T02:14:24;8.88;;;6.78;;
25615;SDS011;13482;48.234;13.006;2023-04-21T02:16:51;11.00;;;7.25;;
25615;SDS011;13482;48.234;13.006;2023-04-21T02:19:19;8.60;;;6.30;;
25615;SDS011;13482;48.234;13.006;2023-04-21T02:21:46;8.60;;;6.30;;
25615;SDS011;13482;48.234;13.006;2023-04-21T02:24:13;7.90;;;5.80;;
25615;SDS011;13482;48.234;13.006;2023-04-21T02:26:40;8.52;;;6.00;;
25615;SDS011;13482;48.234;13.006;2023-04-21T02:29:07;8.10;;;5.68;;
25615;SDS011;13482;48.234;13.006;2023-04-21T02:31:34;8.40;;;6.13;;
25615;SDS011;13482;48.234;13.006;2023-04-21T02:34:22;7.72;;;6.15;;
25615;SDS011;13482;48.234;13.006;2023-04-21T02:36:49;8.00;;;5.90;;
25615;SDS011;13482;48.234;13.006;2023-04-21T02:39:16;8.77;;;5.97;;
25615;SDS011;13482;48.234;13.006;2023-04-21T02:41:43;9.10;;;6.28;;
25615;SDS011;13482;48.234;13.006;2023-04-21T02:44:10;7.85;;;5.95;;
25615;SDS011;13482;48.234;13.006;2023-04-21T02:46:40;7.85;;;5.90;;
25615;SDS011;13482;48.234;13.006;2023-04-21T02:49:08;8.20;;;5.20;;
25615;SDS011;13482;48.234;13.006;2023-04-21T02:51:36;7.32;;;5.80;;
25615;SDS011;13482;48.234;13.006;2023-04-21T02:54:03;8.50;;;6.20;;
25615;SDS011;13482;48.234;13.006;2023-04-21T02:56:30;7.97;;;5.53;;
25615;SDS011;13482;48.234;13.006;2023-04-21T02:58:59;7.18;;;5.65;;
25615;SDS011;13482;48.234;13.006;2023-04-21T03:01:27;8.75;;;5.97;;
25615;SDS011;13482;48.234;13.006;2023-04-21T03:03:54;7.05;;;5.55;;
25615;SDS011;13482;48.234;13.006;2023-04-21T03:06:21;7.38;;;5.57;;
25615;SDS011;13482;48.234;13.006;2023-04-21T03:08:48;7.68;;;5.60;;
25615;SDS011;13482;48.234;13.006;2023-04-21T03:11:15;7.53;;;5.55;;
25615;SDS011;13482;48.234;13.006;2023-04-21T03:13:42;7.10;;;5.32;;
25615;SDS011;13482;48.234;13.006;2023-04-21T03:16:10;8.85;;;6.60;;
25615;SDS011;13482;48.234;13.006;2023-04-21T03:18:37;10.48;;;7.88;;
25615;SDS011;13482;48.234;13.006;2023-04-21T03:21:04;12.02;;;8.30;;
25615;SDS011;13482;48.234;13.006;2023-04-21T03:23:31;11.40;;;7.88;;
25615;SDS011;13482;48.234;13.006;2023-04-21T03:25:58;10.60;;;7.05;;
25615;SDS011;13482;48.234;13.006;2023-04-21T03:28:25;9.18;;;6.07;;
25615;SDS011;13482;48.234;13.006;2023-04-21T03:30:52;7.95;;;5.88;;
25615;SDS011;13482;48.234;13.006;2023-04-21T03:33:19;7.40;;;5.75;;
25615;SDS011;13482;48.234;13.006;2023-04-21T03:35:47;7.13;;;5.13;;
25615;SDS011;13482;48.234;13.006;2023-04-21T03:38:14;11.25;;;5.97;;
25615;SDS011;13482;48.234;13.006;2023-04-21T03:40:41;7.82;;;5.38;;
25615;SDS011;13482;48.234;13.006;2023-04-21T03:43:08;7.90;;;5.82;;
25615;SDS011;13482;48.234;13.006;2023-04-21T03:45:35;7.43;;;5.57;;
25615;SDS011;13482;48.234;13.006;2023-04-21T03:48:02;8.10;;;5.28;;
25615;SDS011;13482;48.234;13.006;2023-04-21T03:50:30;7.75;;;4.97;;
25615;SDS011;13482;48.234;13.006;2023-04-21T03:52:57;9.13;;;5.97;;
25615;SDS011;13482;48.234;13.006;2023-04-21T03:55:24;8.82;;;5.75;;
25615;SDS011;13482;48.234;13.006;2023-04-21T03:57:51;7.60;;;5.40;;
25615;SDS011;13482;48.234;13.006;2023-04-21T04:00:18;8.13;;;5.53;;
25615;SDS011;13482;48.234;13.006;2023-04-21T04:02:46;7.43;;;5.13;;
25615;SDS011;13482;48.234;13.006;2023-04-21T04:05:13;6.25;;;4.75;;
25615;SDS011;13482;48.234;13.006;2023-04-21T04:07:41;6.75;;;5.07;;
25615;SDS011;13482;48.234;13.006;2023-04-21T04:10:08;6.32;;;4.85;;
25615;SDS011;13482;48.234;13.006;2023-04-21T04:12:35;6.63;;;4.80;;
25615;SDS011;13482;48.234;13.006;2023-04-21T04:15:02;7.72;;;5.47;;
25615;SDS011;13482;48.234;13.006;2023-04-21T04:17:30;7.55;;;5.50;;
25615;SDS011;13482;48.234;13.006;2023-04-21T04:19:57;7.28;;;5.53;;
25615;SDS011;13482;48.234;13.006;2023-04-21T04:22:24;10.73;;;6.22;;
25615;SDS011;13482;48.234;13.006;2023-04-21T04:24:51;9.82;;;6.22;;
25615;SDS011;13482;48.234;13.006;2023-04-21T04:27:18;9.48;;;6.15;;
25615;SDS011;13482;48.234;13.006;2023-04-21T04:29:46;13.02;;;6.30;;
25615;SDS011;13482;48.234;13.006;2023-04-21T04:32:14;10.13;;;6.68;;
25615;SDS011;13482;48.234;13.006;2023-04-21T04:34:41;9.27;;;6.03;;
25615;SDS011;13482;48.234;13.006;2023-04-21T04:37:08;9.70;;;6.07;;
25615;SDS011;13482;48.234;13.006;2023-04-21T04:39:36;14.85;;;6.03;;
25615;SDS011;13482;48.234;13.006;2023-04-21T04:42:06;13.00;;;6.32;;
25615;SDS011;13482;48.234;13.006;2023-04-21T04:47:02;9.57;;;4.82;;
25615;SDS011;13482;48.234;13.006;2023-04-21T04:49:30;12.57;;;5.05;;
25615;SDS011;13482;48.234;13.006;2023-04-21T04:51:57;16.13;;;5.18;;
25615;SDS011;13482;48.234;13.006;2023-04-21T04:54:25;6.85;;;4.57;;
25615;SDS011;13482;48.234;13.006;2023-04-21T04:56:54;7.20;;;4.82;;
25615;SDS011;13482;48.234;13.006;2023-04-21T04:59:23;16.05;;;5.28;;
25615;SDS011;13482;48.234;13.006;2023-04-21T05:01:50;5.78;;;4.43;;
25615;SDS011;13482;48.234;13.006;2023-04-21T05:04:18;6.25;;;4.70;;
25615;SDS011;13482;48.234;13.006;2023-04-21T05:06:47;6.60;;;4.40;;
25615;SDS011;13482;48.234;13.006;2023-04-21T05:09:15;5.97;;;4.55;;
25615;SDS011;13482;48.234;13.006;2023-04-21T05:11:42;6.78;;;4.70;;
25615;SDS011;13482;48.234;13.006;2023-04-21T05:14:09;6.85;;;4.82;;
25615;SDS011;13482;48.234;13.006;2023-04-21T05:16:36;7.43;;;5.35;;
25615;SDS011;13482;48.234;13.006;2023-04-21T05:19:03;6.95;;;5.53;;
25615;SDS011;13482;48.234;13.006;2023-04-21T05:21:30;7.75;;;5.55;;
25615;SDS011;13482;48.234;13.006;2023-04-21T05:23:58;8.30;;;5.25;;
25615;SDS011;13482;48.234;13.006;2023-04-21T05:26:27;9.23;;;5.43;;
25615;SDS011;13482;48.234;13.006;2023-04-21T05:28:55;5.82;;;4.78;;
25615;SDS011;13482;48.234;13.006;2023-04-21T05:31:23;7.45;;;4.82;;
25615;SDS011;13482;48.234;13.006;2023-04-21T05:33:51;8.40;;;6.10;;
25615;SDS011;13482;48.234;13.006;2023-04-21T05:36:18;9.23;;;6.80;;
25615;SDS011;13482;48.234;13.006;2023-04-21T05:38:46;10.98;;;7.88;;
25615;SDS011;13482;48.234;13.006;2023-04-21T05:41:13;11.30;;;7.88;;
25615;SDS011;13482;48.234;13.006;2023-04-21T05:43:40;10.18;;;7.32;;
25615;SDS011;13482;48.234;13.006;2023-04-21T05:46:08;10.50;;;7.53;;
25615;SDS011;13482;48.234;13.006;2023-04-21T05:48:36;10.25;;;7.63;;
25615;SDS011;13482;48.234;13.006;2023-04-21T05:51:10;10.48;;;7.20;;
25615;SDS011;13482;48.234;13.006;2023-04-21T05:53:41;8.35;;;6.15;;
25615;SDS011;13482;48.234;13.006;2023-04-21T05:56:10;9.70;;;6.72;;
25615;SDS011;13482;48.234;13.006;2023-04-21T05:58:38;8.07;;;6.20;;
25615;SDS011;13482;48.234;13.006;2023-04-21T06:01:07;7.57;;;5.53;;
25615;SDS011;13482;48.234;13.006;2023-04-21T06:03:34;7.65;;;5.95;;
25615;SDS011;13482;48.234;13.006;2023-04-21T06:06:02;8.00;;;6.07;;
25615;SDS011;13482;48.234;13.006;2023-04-21T06:08:31;7.68;;;5.88;;
25615;SDS011;13482;48.234;13.006;2023-04-21T06:10:58;7.47;;;5.75;;
25615;SDS011;13482;48.234;13.006;2023-04-21T06:13:26;8.90;;;6.88;;
25615;SDS011;13482;48.234;13.006;2023-04-21T06:15:53;8.20;;;6.40;;
25615;SDS011;13482;48.234;13.006;2023-04-21T06:18:21;8.38;;;6.72;;
25615;SDS011;13482;48.234;13.006;2023-04-21T06:20:49;9.70;;;7.72;;
25615;SDS011;13482;48.234;13.006;2023-04-21T06:23:17;8.32;;;6.88;;
25615;SDS011;13482;48.234;13.006;2023-04-21T06:25:44;9.73;;;7.85;;
25615;SDS011;13482;48.234;13.006;2023-04-21T06:28:12;10.35;;;8.32;;
25615;SDS011;13482;48.234;13.006;2023-04-21T06:30:39;11.20;;;8.90;;
25615;SDS011;13482;48.234;13.006;2023-04-21T06:33:06;10.18;;;8.02;;
25615;SDS011;13482;48.234;13.006;2023-04-21T06:35:33;11.35;;;8.15;;
25615;SDS011;13482;48.234;13.006;2023-04-21T06:38:00;11.05;;;8.90;;
25615;SDS011;13482;48.234;13.006;2023-04-21T06:40:27;10.45;;;8.23;;
25615;SDS011;13482;48.234;13.006;2023-04-21T06:42:55;12.15;;;8.88;;
25615;SDS011;13482;48.234;13.006;2023-04-21T06:45:22;10.82;;;8.98;;
25615;SDS011;13482;48.234;13.006;2023-04-21T06:47:49;11.77;;;8.98;;
25615;SDS011;13482;48.234;13.006;2023-04-21T06:50:16;12.05;;;8.93;;
25615;SDS011;13482;48.234;13.006;2023-04-21T06:52:43;11.73;;;9.02;;
25615;SDS011;13482;48.234;13.006;2023-04-21T06:55:10;11.27;;;8.95;;
25615;SDS011;13482;48.234;13.006;2023-04-21T06:57:37;11.82;;;9.13;;
25615;SDS011;13482;48.234;13.006;2023-04-21T07:00:06;12.35;;;9.35;;
25615;SDS011;13482;48.234;13.006;2023-04-21T07:02:34;11.52;;;8.88;;
25615;SDS011;13482;48.234;13.006;2023-04-21T07:05:02;11.70;;;9.40;;
25615;SDS011;13482;48.234;13.006;2023-04-21T07:07:29;11.63;;;8.80;;
25615;SDS011;13482;48.234;13.006;2023-04-21T07:09:57;12.57;;;9.70;;
25615;SDS011;13482;48.234;13.006;2023-04-21T07:12:24;12.45;;;9.88;;
25615;SDS011;13482;48.234;13.006;2023-04-21T07:14:51;11.38;;;9.57;;
25615;SDS011;13482;48.234;13.006;2023-04-21T07:17:18;11.85;;;9.00;;
25615;SDS011;13482;48.234;13.006;2023-04-21T07:19:45;11.70;;;9.68;;
25615;SDS011;13482;48.234;13.006;2023-04-21T07:22:12;10.90;;;8.73;;
25615;SDS011;13482;48.234;13.006;2023-04-21T07:24:39;11.93;;;8.70;;
25615;SDS011;13482;48.234;13.006;2023-04-21T07:27:06;13.30;;;9.18;;
25615;SDS011;13482;48.234;13.006;2023-04-21T07:29:33;10.13;;;8.25;;
25615;SDS011;13482;48.234;13.006;2023-04-21T07:32:00;11.57;;;9.25;;
25615;SDS011;13482;48.234;13.006;2023-04-21T07:34:27;9.73;;;8.43;;
25615;SDS011;13482;48.234;13.006;2023-04-21T07:36:54;10.40;;;8.45;;
25615;SDS011;13482;48.234;13.006;2023-04-21T07:39:21;10.05;;;8.55;;
25615;SDS011;13482;48.234;13.006;2023-04-21T07:41:48;10.20;;;8.65;;
25615;SDS011;13482;48.234;13.006;2023-04-21T07:44:16;11.07;;;8.82;;
25615;SDS011;13482;48.234;13.006;2023-04-21T07:46:43;9.35;;;7.80;;
25615;SDS011;13482;48.234;13.006;2023-04-21T07:49:10;9.65;;;7.97;;
25615;SDS011;13482;48.234;13.006;2023-04-21T07:51:37;9.45;;;7.32;;
25615;SDS011;13482;48.234;13.006;2023-04-21T07:54:05;8.38;;;7.13;;
25615;SDS011;13482;48.234;13.006;2023-04-21T07:56:32;9.18;;;7.60;;
25615;SDS011;13482;48.234;13.006;2023-04-21T07:58:59;8.13;;;6.93;;
25615;SDS011;13482;48.234;13.006;2023-04-21T08:01:26;7.80;;;7.00;;
25615;SDS011;13482;48.234;13.006;2023-04-21T08:03:53;8.50;;;6.85;;
25615;SDS011;13482;48.234;13.006;2023-04-21T08:06:20;7.18;;;6.30;;
25615;SDS011;13482;48.234;13.006;2023-04-21T08:08:48;7.72;;;6.55;;
25615;SDS011;13482;48.234;13.006;2023-04-21T08:11:15;8.27;;;6.57;;
25615;SDS011;13482;48.234;13.006;2023-04-21T08:13:43;7.22;;;6.30;;
25615;SDS011;13482;48.234;13.006;2023-04-21T08:16:10;7.80;;;6.10;;
25615;SDS011;13482;48.234;13.006;2023-04-21T08:18:37;8.38;;;5.95;;
25615;SDS011;13482;48.234;13.006;2023-04-21T08:21:04;7.35;;;6.43;;
25615;SDS011;13482;48.234;13.006;2023-04-21T08:23:31;6.72;;;5.88;;
25615;SDS011;13482;48.234;13.006;2023-04-21T08:25:59;6.78;;;6.07;;
25615;SDS011;13482;48.234;13.006;2023-04-21T08:28:27;6.75;;;5.85;;
25615;SDS011;13482;48.234;13.006;2023-04-21T08:30:55;6.15;;;5.55;;
25615;SDS011;13482;48.234;13.006;2023-04-21T08:33:22;6.95;;;5.60;;
25615;SDS011;13482;48.234;13.006;2023-04-21T08:35:49;5.78;;;5.13;;
25615;SDS011;13482;48.234;13.006;2023-04-21T08:38:30;5.47;;;4.82;;
25615;SDS011;13482;48.234;13.006;2023-04-21T08:40:58;5.70;;;5.10;;
25615;SDS011;13482;48.234;13.006;2023-04-21T08:43:27;5.97;;;4.97;;
25615;SDS011;13482;48.234;13.006;2023-04-21T08:45:54;4.97;;;4.35;;
25615;SDS011;13482;48.234;13.006;2023-04-21T08:48:22;5.00;;;4.30;;
25615;SDS011;13482;48.234;13.006;2023-04-21T08:50:51;5.28;;;4.00;;
25615;SDS011;13482;48.234;13.006;2023-04-21T08:53:19;4.90;;;4.10;;
25615;SDS011;13482;48.234;13.006;2023-04-21T08:55:50;5.28;;;4.30;;
25615;SDS011;13482;48.234;13.006;2023-04-21T08:58:36;4.35;;;3.67;;
25615;SDS011;13482;48.234;13.006;2023-04-21T09:01:03;3.95;;;2.92;;
25615;SDS011;13482;48.234;13.006;2023-04-21T09:03:31;3.72;;;3.15;;
25615;SDS011;13482;48.234;13.006;2023-04-21T09:05:59;3.65;;;2.92;;
25615;SDS011;13482;48.234;13.006;2023-04-21T09:08:31;3.33;;;2.90;;
25615;SDS011;13482;48.234;13.006;2023-04-21T09:10:59;3.38;;;2.70;;
25615;SDS011;13482;48.234;13.006;2023-04-21T09:13:31;3.78;;;2.65;;
25615;SDS011;13482;48.234;13.006;2023-04-21T09:16:03;2.83;;;2.45;;
25615;SDS011;13482;48.234;13.006;2023-04-21T09:18:43;3.63;;;2.43;;
25615;SDS011;13482;48.234;13.006;2023-04-21T09:21:12;3.97;;;2.90;;
25615;SDS011;13482;48.234;13.006;2023-04-21T09:23:48;3.45;;;2.50;;
25615;SDS011;13482;48.234;13.006;2023-04-21T09:26:18;3.40;;;2.55;;
25615;SDS011;13482;48.234;13.006;2023-04-21T09:28:48;2.60;;;2.00;;
25615;SDS011;13482;48.234;13.006;2023-04-21T09:31:18;2.80;;;2.45;;
25615;SDS011;13482;48.234;13.006;2023-04-21T09:33:55;2.88;;;2.30;;
25615;SDS011;13482;48.234;13.006;2023-04-21T09:36:27;3.00;;;2.30;;
25615;SDS011;13482;48.234;13.006;2023-04-21T09:39:00;2.95;;;2.20;;
25615;SDS011;13482;48.234;13.006;2023-04-21T09:41:32;4.50;;;2.10;;
25615;SDS011;13482;48.234;13.006;2023-04-21T09:43:59;2.58;;;2.38;;
25615;SDS011;13482;48.234;13.006;2023-04-21T09:46:28;2.72;;;2.00;;
25615;SDS011;13482;48.234;13.006;2023-04-21T09:49:02;2.80;;;2.08;;
25615;SDS011;13482;48.234;13.006;2023-04-21T09:51:30;2.88;;;2.05;;
25615;SDS011;13482;48.234;13.006;2023-04-21T09:54:19;3.65;;;2.17;;
25615;SDS011;13482;48.234;13.006;2023-04-21T09:56:51;2.65;;;2.08;;
25615;SDS011;13482;48.234;13.006;2023-04-21T09:59:20;2.70;;;2.33;;
25615;SDS011;13482;48.234;13.006;2023-04-21T10:01:54;2.38;;;2.00;;
25615;SDS011;13482;48.234;13.006;2023-04-21T10:04:23;2.75;;;2.17;;
25615;SDS011;13482;48.234;13.006;2023-04-21T10:06:52;2.13;;;1.80;;
25615;SDS011;13482;48.234;13.006;2023-04-21T10:09:20;2.28;;;1.95;;
25615;SDS011;13482;48.234;13.006;2023-04-21T10:11:51;2.53;;;2.00;;
25615;SDS011;13482;48.234;13.006;2023-04-21T10:14:20;2.30;;;1.85;;
25615;SDS011;13482;48.234;13.006;2023-04-21T10:19:54;2.30;;;1.85;;
25615;SDS011;13482;48.234;13.006;2023-04-21T10:22:27;2.92;;;2.05;;
25615;SDS011;13482;48.234;13.006;2023-04-21T10:24:59;2.85;;;1.90;;
25615;SDS011;13482;48.234;13.006;2023-04-21T10:27:35;2.53;;;1.85;;
25615;SDS011;13482;48.234;13.006;2023-04-21T10:30:19;2.58;;;2.05;;
25615;SDS011;13482;48.234;13.006;2023-04-21T10:32:48;1.98;;;1.67;;
25615;SDS011;13482;48.234;13.006;2023-04-21T10:38:33;2.20;;;1.70;;
25615;SDS011;13482;48.234;13.006;2023-04-21T10:41:29;1.95;;;1.48;;
25615;SDS011;13482;48.234;13.006;2023-04-21T10:44:00;2.30;;;1.70;;
25615;SDS011;13482;48.234;13.006;2023-04-21T10:46:38;2.15;;;1.48;;
25615;SDS011;13482;48.234;13.006;2023-04-21T10:54:29;2.10;;;1.40;;
25615;SDS011;13482;48.234;13.006;2023-04-21T10:57:08;2.13;;;1.40;;
25615;SDS011;13482;48.234;13.006;2023-04-21T10:59:37;2.33;;;1.60;;
25615;SDS011;13482;48.234;13.006;2023-04-21T11:02:06;1.98;;;1.60;;
25615;SDS011;13482;48.234;13.006;2023-04-21T11:04:37;2.08;;;1.50;;
25615;SDS011;13482;48.234;13.006;2023-04-21T11:07:11;2.17;;;1.33;;
25615;SDS011;13482;48.234;13.006;2023-04-21T11:09:46;1.80;;;1.23;;
25615;SDS011;13482;48.234;13.006;2023-04-21T11:12:25;1.92;;;1.25;;
25615;SDS011;13482;48.234;13.006;2023-04-21T11:14:57;1.70;;;1.33;;
25615;SDS011;13482;48.234;13.006;2023-04-21T11:17:24;2.65;;;1.20;;
25615;SDS011;13482;48.234;13.006;2023-04-21T11:19:53;1.60;;;1.27;;
25615;SDS011;13482;48.234;13.006;2023-04-21T11:22:23;1.75;;;1.27;;
25615;SDS011;13482;48.234;13.006;2023-04-21T11:24:53;1.67;;;1.20;;
25615;SDS011;13482;48.234;13.006;2023-04-21T11:27:21;1.60;;;1.10;;
25615;SDS011;13482;48.234;13.006;2023-04-21T11:29:52;1.80;;;1.20;;
25615;SDS011;13482;48.234;13.006;2023-04-21T11:32:19;1.85;;;1.08;;
25615;SDS011;13482;48.234;13.006;2023-04-21T11:34:47;1.58;;;1.23;;
25615;SDS011;13482;48.234;13.006;2023-04-21T11:37:15;1.70;;;1.30;;
25615;SDS011;13482;48.234;13.006;2023-04-21T11:39:48;1.73;;;1.08;;
25615;SDS011;13482;48.234;13.006;2023-04-21T11:42:21;1.35;;;1.00;;
25615;SDS011;13482;48.234;13.006;2023-04-21T11:44:48;3.35;;;1.77;;
25615;SDS011;13482;48.234;13.006;2023-04-21T11:47:16;1.73;;;1.08;;
25615;SDS011;13482;48.234;13.006;2023-04-21T11:50:07;1.27;;;1.00;;
25615;SDS011;13482;48.234;13.006;2023-04-21T11:52:35;1.80;;;1.25;;
25615;SDS011;13482;48.234;13.006;2023-04-21T11:55:04;1.63;;;1.20;;
25615;SDS011;13482;48.234;13.006;2023-04-21T11:57:41;1.60;;;1.20;;
25615;SDS011;13482;48.234;13.006;2023-04-21T12:00:09;1.92;;;1.20;;
25615;SDS011;13482;48.234;13.006;2023-04-21T12:05:10;1.20;;;1.00;;
25615;SDS011;13482;48.234;13.006;2023-04-21T12:07:42;1.90;;;1.48;;
25615;SDS011;13482;48.234;13.006;2023-04-21T12:10:16;1.48;;;1.10;;
25615;SDS011;13482;48.234;13.006;2023-04-21T12:12:46;3.55;;;1.40;;
25615;SDS011;13482;48.234;13.006;2023-04-21T12:15:18;1.40;;;1.10;;
25615;SDS011;13482;48.234;13.006;2023-04-21T12:17:49;1.63;;;1.10;;
25615;SDS011;13482;48.234;13.006;2023-04-21T12:20:21;1.90;;;1.10;;
25615;SDS011;13482;48.234;13.006;2023-04-21T12:22:50;1.45;;;1.15;;
25615;SDS011;13482;48.234;13.006;2023-04-21T12:25:17;1.60;;;1.08;;
25615;SDS011;13482;48.234;13.006;2023-04-21T12:27:48;1.83;;;1.23;;
25615;SDS011;13482;48.234;13.006;2023-04-21T12:30:19;1.55;;;0.98;;
25615;SDS011;13482;48.234;13.006;2023-04-21T12:32:47;2.00;;;1.20;;
25615;SDS011;13482;48.234;13.006;2023-04-21T12:35:14;1.40;;;0.90;;
25615;SDS011;13482;48.234;13.006;2023-04-21T12:37:41;1.67;;;1.10;;
25615;SDS011;13482;48.234;13.006;2023-04-21T12:40:10;1.40;;;1.00;;
25615;SDS011;13482;48.234;13.006;2023-04-21T12:42:37;1.40;;;0.98;;
25615;SDS011;13482;48.234;13.006;2023-04-21T12:45:04;1.30;;;0.90;;
25615;SDS011;13482;48.234;13.006;2023-04-21T12:47:32;1.35;;;1.00;;
25615;SDS011;13482;48.234;13.006;2023-04-21T12:50:04;1.45;;;0.90;;
25615;SDS011;13482;48.234;13.006;2023-04-21T12:52:31;1.08;;;0.80;;
25615;SDS011;13482;48.234;13.006;2023-04-21T12:54:58;1.90;;;1.00;;
25615;SDS011;13482;48.234;13.006;2023-04-21T12:57:26;1.10;;;0.80;;
25615;SDS011;13482;48.234;13.006;2023-04-21T12:59:54;1.92;;;1.10;;
25615;SDS011;13482;48.234;13.006;2023-04-21T13:02:21;2.22;;;1.40;;
25615;SDS011;13482;48.234;13.006;2023-04-21T13:04:48;1.92;;;1.20;;
25615;SDS011;13482;48.234;13.006;2023-04-21T13:07:15;1.85;;;0.93;;
25615;SDS011;13482;48.234;13.006;2023-04-21T13:09:46;1.30;;;0.90;;
25615;SDS011;13482;48.234;13.006;2023-04-21T13:12:13;1.42;;;1.02;;
25615;SDS011;13482;48.234;13.006;2023-04-21T13:14:40;0.90;;;0.70;;
25615;SDS011;13482;48.234;13.006;2023-04-21T13:17:08;1.77;;;1.00;;
25615;SDS011;13482;48.234;13.006;2023-04-21T13:19:35;1.23;;;0.90;;
25615;SDS011;13482;48.234;13.006;2023-04-21T13:22:02;1.40;;;1.08;;
25615;SDS011;13482;48.234;13.006;2023-04-21T13:24:29;1.02;;;0.80;;
25615;SDS011;13482;48.234;13.006;2023-04-21T13:26:59;1.10;;;0.77;;
25615;SDS011;13482;48.234;13.006;2023-04-21T13:29:31;1.00;;;0.70;;
25615;SDS011;13482;48.234;13.006;2023-04-21T13:32:02;1.27;;;0.98;;
25615;SDS011;13482;48.234;13.006;2023-04-21T13:34:32;1.13;;;0.80;;
25615;SDS011;13482;48.234;13.006;2023-04-21T13:37:00;0.90;;;0.70;;
25615;SDS011;13482;48.234;13.006;2023-04-21T13:39:27;2.13;;;1.05;;
25615;SDS011;13482;48.234;13.006;2023-04-21T13:41:54;2.78;;;1.10;;
25615;SDS011;13482;48.234;13.006;2023-04-21T13:44:22;1.75;;;1.10;;
25615;SDS011;13482;48.234;13.006;2023-04-21T13:46:49;1.30;;;0.93;;
25615;SDS011;13482;48.234;13.006;2023-04-21T13:49:18;1.50;;;1.08;;
25615;SDS011;13482;48.234;13.006;2023-04-21T13:51:46;1.55;;;1.08;;
25615;SDS011;13482;48.234;13.006;2023-04-21T13:54:13;1.20;;;1.00;;
25615;SDS011;13482;48.234;13.006;2023-04-21T13:56:40;2.35;;;1.00;;
25615;SDS011;13482;48.234;13.006;2023-04-21T13:59:09;1.30;;;1.00;;
25615;SDS011;13482;48.234;13.006;2023-04-21T14:01:36;1.75;;;1.00;;
25615;SDS011;13482;48.234;13.006;2023-04-21T14:04:03;2.70;;;1.20;;
25615;SDS011;13482;48.234;13.006;2023-04-21T14:06:31;1.25;;;0.98;;
25615;SDS011;13482;48.234;13.006;2023-04-21T14:08:58;1.20;;;0.90;;
25615;SDS011;13482;48.234;13.006;2023-04-21T14:11:25;1.10;;;0.75;;
25615;SDS011;13482;48.234;13.006;2023-04-21T14:13:53;1.30;;;0.98;;
25615;SDS011;13482;48.234;13.006;2023-04-21T14:16:34;1.27;;;1.00;;
25615;SDS011;13482;48.234;13.006;2023-04-21T14:19:02;1.13;;;0.90;;
25615;SDS011;13482;48.234;13.006;2023-04-21T14:21:29;1.50;;;1.10;;
25615;SDS011;13482;48.234;13.006;2023-04-21T14:23:57;1.75;;;1.30;;
25615;SDS011;13482;48.234;13.006;2023-04-21T14:26:25;1.80;;;1.05;;
25615;SDS011;13482;48.234;13.006;2023-04-21T14:28:52;0.95;;;0.70;;
25615;SDS011;13482;48.234;13.006;2023-04-21T14:31:19;1.20;;;0.93;;
25615;SDS011;13482;48.234;13.006;2023-04-21T14:33:47;1.38;;;1.08;;
25615;SDS011;13482;48.234;13.006;2023-04-21T14:36:14;1.85;;;1.10;;
25615;SDS011;13482;48.234;13.006;2023-04-21T14:38:42;1.50;;;1.05;;
25615;SDS011;13482;48.234;13.006;2023-04-21T14:41:09;1.35;;;1.02;;
25615;SDS011;13482;48.234;13.006;2023-04-21T14:43:36;2.60;;;1.05;;
25615;SDS011;13482;48.234;13.006;2023-04-21T14:46:03;1.40;;;1.08;;
25615;SDS011;13482;48.234;13.006;2023-04-21T14:48:31;0.98;;;0.80;;
25615;SDS011;13482;48.234;13.006;2023-04-21T14:50:58;1.65;;;1.10;;
25615;SDS011;13482;48.234;13.006;2023-04-21T14:53:26;1.35;;;1.00;;
25615;SDS011;13482;48.234;13.006;2023-04-21T14:55:53;1.50;;;1.02;;
25615;SDS011;13482;48.234;13.006;2023-04-21T14:58:20;1.38;;;0.90;;